sensor_id;sensor_type;location;lat;lon;timestamp;P1;durP1;ratioP1;P2;durP2;ratioP2
14394;SDS011;7282;49.204;10.652;2022-11-25T00:00:30;15.83;;;12.23;;
14394;SDS011;7282;49.204;10.652;2022-11-25T00:02:56;15.67;;;12.40;;
14394;SDS011;7282;49.204;10.652;2022-11-25T00:05:24;21.47;;;14.43;;
14394;SDS011;7282;49.204;10.652;2022-11-25T00:07:51;16.60;;;13.57;;
14394;SDS011;7282;49.204;10.652;2022-11-25T00:10:17;16.60;;;12.93;;
14394;SDS011;7282;49.204;10.652;2022-11-25T00:12:44;15.80;;;12.20;;
14394;SDS011;7282;49.204;10.652;2022-11-25T00:15:11;14.00;;;11.53;;
14394;SDS011;7282;49.204;10.652;2022-11-25T00:17:37;13.37;;;11.97;;
14394;SDS011;7282;49.204;10.652;2022-11-25T00:20:04;34.63;;;15.37;;
14394;SDS011;7282;49.204;10.652;2022-11-25T00:22:31;15.50;;;12.47;;
14394;SDS011;7282;49.204;10.652;2022-11-25T00:24:58;42.50;;;13.37;;
14394;SDS011;7282;49.204;10.652;2022-11-25T00:27:25;11.60;;;10.40;;
14394;SDS011;7282;49.204;10.652;2022-11-25T00:29:51;11.33;;;10.20;;
14394;SDS011;7282;49.204;10.652;2022-11-25T00:32:18;13.67;;;11.63;;
14394;SDS011;7282;49.204;10.652;2022-11-25T00:34:45;15.50;;;12.50;;
14394;SDS011;7282;49.204;10.652;2022-11-25T00:37:11;18.03;;;11.80;;
14394;SDS011;7282;49.204;10.652;2022-11-25T00:39:38;13.53;;;12.13;;
14394;SDS011;7282;49.204;10.652;2022-11-25T00:42:05;12.87;;;11.00;;
14394;SDS011;7282;49.204;10.652;2022-11-25T00:44:49;11.30;;;9.90;;
14394;SDS011;7282;49.204;10.652;2022-11-25T00:47:17;12.17;;;10.87;;
14394;SDS011;7282;49.204;10.652;2022-11-25T00:49:45;14.40;;;11.23;;
14394;SDS011;7282;49.204;10.652;2022-11-25T00:52:13;13.30;;;11.53;;
14394;SDS011;7282;49.204;10.652;2022-11-25T00:54:40;17.03;;;12.40;;
14394;SDS011;7282;49.204;10.652;2022-11-25T00:57:07;14.53;;;11.93;;
14394;SDS011;7282;49.204;10.652;2022-11-25T00:59:34;15.47;;;11.77;;
14394;SDS011;7282;49.204;10.652;2022-11-25T01:02:00;14.03;;;12.20;;
14394;SDS011;7282;49.204;10.652;2022-11-25T01:04:27;16.73;;;12.20;;
14394;SDS011;7282;49.204;10.652;2022-11-25T01:06:54;17.13;;;11.40;;
14394;SDS011;7282;49.204;10.652;2022-11-25T01:09:21;13.03;;;11.30;;
14394;SDS011;7282;49.204;10.652;2022-11-25T01:11:48;11.87;;;10.57;;
14394;SDS011;7282;49.204;10.652;2022-11-25T01:14:16;12.80;;;11.30;;
14394;SDS011;7282;49.204;10.652;2022-11-25T01:16:43;13.13;;;11.13;;
14394;SDS011;7282;49.204;10.652;2022-11-25T01:19:10;13.60;;;11.40;;
14394;SDS011;7282;49.204;10.652;2022-11-25T01:21:37;11.40;;;10.00;;
14394;SDS011;7282;49.204;10.652;2022-11-25T01:24:04;11.70;;;10.07;;
14394;SDS011;7282;49.204;10.652;2022-11-25T01:26:32;12.27;;;10.57;;
14394;SDS011;7282;49.204;10.652;2022-11-25T01:29:00;14.17;;;11.20;;
14394;SDS011;7282;49.204;10.652;2022-11-25T01:31:28;13.40;;;11.33;;
14394;SDS011;7282;49.204;10.652;2022-11-25T01:33:57;15.00;;;12.17;;
14394;SDS011;7282;49.204;10.652;2022-11-25T01:36:29;15.63;;;12.13;;
14394;SDS011;7282;49.204;10.652;2022-11-25T01:38:54;19.63;;;13.37;;
14394;SDS011;7282;49.204;10.652;2022-11-25T01:41:21;20.47;;;15.50;;
14394;SDS011;7282;49.204;10.652;2022-11-25T01:46:49;16.93;;;14.10;;
14394;SDS011;7282;49.204;10.652;2022-11-25T01:49:50;20.50;;;14.27;;
14394;SDS011;7282;49.204;10.652;2022-11-25T01:51:55;20.03;;;13.90;;
14394;SDS011;7282;49.204;10.652;2022-11-25T01:54:22;16.00;;;13.07;;
14394;SDS011;7282;49.204;10.652;2022-11-25T01:56:50;17.10;;;14.13;;
14394;SDS011;7282;49.204;10.652;2022-11-25T01:59:18;18.97;;;14.33;;
14394;SDS011;7282;49.204;10.652;2022-11-25T02:01:44;20.10;;;15.70;;
14394;SDS011;7282;49.204;10.652;2022-11-25T02:04:11;25.03;;;17.20;;
14394;SDS011;7282;49.204;10.652;2022-11-25T02:06:41;25.13;;;16.47;;
14394;SDS011;7282;49.204;10.652;2022-11-25T02:09:08;26.57;;;17.90;;
14394;SDS011;7282;49.204;10.652;2022-11-25T02:11:35;23.73;;;15.60;;
14394;SDS011;7282;49.204;10.652;2022-11-25T02:14:03;22.03;;;15.87;;
14394;SDS011;7282;49.204;10.652;2022-11-25T02:16:31;17.77;;;13.47;;
14394;SDS011;7282;49.204;10.652;2022-11-25T02:18:57;20.40;;;13.90;;
14394;SDS011;7282;49.204;10.652;2022-11-25T02:21:33;18.20;;;13.40;;
14394;SDS011;7282;49.204;10.652;2022-11-25T02:24:33;14.87;;;12.50;;
14394;SDS011;7282;49.204;10.652;2022-11-25T02:26:33;18.63;;;12.87;;
14394;SDS011;7282;49.204;10.652;2022-11-25T02:29:00;12.93;;;11.37;;
14394;SDS011;7282;49.204;10.652;2022-11-25T02:31:27;14.57;;;11.50;;
14394;SDS011;7282;49.204;10.652;2022-11-25T02:33:54;13.10;;;11.17;;
14394;SDS011;7282;49.204;10.652;2022-11-25T02:36:20;17.43;;;12.03;;
14394;SDS011;7282;49.204;10.652;2022-11-25T02:38:50;15.37;;;12.37;;
14394;SDS011;7282;49.204;10.652;2022-11-25T02:41:32;14.00;;;11.63;;
14394;SDS011;7282;49.204;10.652;2022-11-25T02:44:00;17.53;;;12.53;;
14394;SDS011;7282;49.204;10.652;2022-11-25T02:46:27;17.37;;;13.53;;
14394;SDS011;7282;49.204;10.652;2022-11-25T02:48:55;16.23;;;13.20;;
14394;SDS011;7282;49.204;10.652;2022-11-25T02:51:23;14.60;;;12.80;;
14394;SDS011;7282;49.204;10.652;2022-11-25T02:53:50;16.87;;;14.23;;
14394;SDS011;7282;49.204;10.652;2022-11-25T02:56:18;16.13;;;13.60;;
14394;SDS011;7282;49.204;10.652;2022-11-25T02:58:45;25.70;;;16.03;;
14394;SDS011;7282;49.204;10.652;2022-11-25T03:01:12;16.70;;;13.20;;
14394;SDS011;7282;49.204;10.652;2022-11-25T03:03:39;15.90;;;12.17;;
14394;SDS011;7282;49.204;10.652;2022-11-25T03:06:06;16.83;;;13.20;;
14394;SDS011;7282;49.204;10.652;2022-11-25T03:08:33;124.63;;;23.73;;
14394;SDS011;7282;49.204;10.652;2022-11-25T03:11:00;28.10;;;13.17;;
14394;SDS011;7282;49.204;10.652;2022-11-25T03:13:26;11.00;;;9.90;;
14394;SDS011;7282;49.204;10.652;2022-11-25T03:15:53;12.50;;;10.30;;
14394;SDS011;7282;49.204;10.652;2022-11-25T03:18:20;12.47;;;11.13;;
14394;SDS011;7282;49.204;10.652;2022-11-25T03:20:50;16.70;;;12.37;;
14394;SDS011;7282;49.204;10.652;2022-11-25T03:23:16;15.73;;;12.10;;
14394;SDS011;7282;49.204;10.652;2022-11-25T03:25:42;14.60;;;12.67;;
14394;SDS011;7282;49.204;10.652;2022-11-25T03:28:09;17.63;;;11.97;;
14394;SDS011;7282;49.204;10.652;2022-11-25T03:30:36;19.60;;;13.17;;
14394;SDS011;7282;49.204;10.652;2022-11-25T03:33:02;16.67;;;13.13;;
14394;SDS011;7282;49.204;10.652;2022-11-25T03:35:29;16.87;;;13.13;;
14394;SDS011;7282;49.204;10.652;2022-11-25T03:37:56;22.20;;;15.67;;
14394;SDS011;7282;49.204;10.652;2022-11-25T03:40:23;22.17;;;15.60;;
14394;SDS011;7282;49.204;10.652;2022-11-25T03:42:49;24.53;;;15.50;;
14394;SDS011;7282;49.204;10.652;2022-11-25T03:45:16;20.50;;;14.77;;
14394;SDS011;7282;49.204;10.652;2022-11-25T03:47:43;19.03;;;14.87;;
14394;SDS011;7282;49.204;10.652;2022-11-25T03:50:11;18.20;;;13.73;;
14394;SDS011;7282;49.204;10.652;2022-11-25T03:52:38;19.60;;;13.73;;
14394;SDS011;7282;49.204;10.652;2022-11-25T03:55:05;16.40;;;13.00;;
14394;SDS011;7282;49.204;10.652;2022-11-25T03:57:32;14.27;;;12.27;;
14394;SDS011;7282;49.204;10.652;2022-11-25T03:59:59;12.80;;;11.47;;
14394;SDS011;7282;49.204;10.652;2022-11-25T04:02:26;15.33;;;12.27;;
14394;SDS011;7282;49.204;10.652;2022-11-25T04:04:53;14.50;;;12.43;;
14394;SDS011;7282;49.204;10.652;2022-11-25T04:07:20;22.57;;;13.50;;
14394;SDS011;7282;49.204;10.652;2022-11-25T04:09:47;47.23;;;15.57;;
14394;SDS011;7282;49.204;10.652;2022-11-25T04:12:13;26.17;;;13.97;;
14394;SDS011;7282;49.204;10.652;2022-11-25T04:14:58;19.27;;;13.93;;
14394;SDS011;7282;49.204;10.652;2022-11-25T04:17:25;16.03;;;13.73;;
14394;SDS011;7282;49.204;10.652;2022-11-25T04:19:52;14.90;;;12.63;;
14394;SDS011;7282;49.204;10.652;2022-11-25T04:22:18;14.67;;;12.50;;
14394;SDS011;7282;49.204;10.652;2022-11-25T04:24:45;15.67;;;13.33;;
14394;SDS011;7282;49.204;10.652;2022-11-25T04:27:12;19.30;;;14.93;;
14394;SDS011;7282;49.204;10.652;2022-11-25T04:29:39;28.17;;;16.43;;
14394;SDS011;7282;49.204;10.652;2022-11-25T04:32:05;19.67;;;14.30;;
14394;SDS011;7282;49.204;10.652;2022-11-25T04:34:32;21.20;;;16.43;;
14394;SDS011;7282;49.204;10.652;2022-11-25T04:36:59;19.63;;;14.93;;
14394;SDS011;7282;49.204;10.652;2022-11-25T04:39:25;21.13;;;15.63;;
14394;SDS011;7282;49.204;10.652;2022-11-25T04:41:52;28.33;;;16.27;;
14394;SDS011;7282;49.204;10.652;2022-11-25T04:44:21;18.43;;;14.37;;
14394;SDS011;7282;49.204;10.652;2022-11-25T04:46:47;20.97;;;13.67;;
14394;SDS011;7282;49.204;10.652;2022-11-25T04:49:14;31.03;;;19.13;;
14394;SDS011;7282;49.204;10.652;2022-11-25T04:51:41;28.83;;;15.63;;
14394;SDS011;7282;49.204;10.652;2022-11-25T04:54:07;18.80;;;14.93;;
14394;SDS011;7282;49.204;10.652;2022-11-25T04:56:34;26.77;;;16.10;;
14394;SDS011;7282;49.204;10.652;2022-11-25T04:59:01;23.07;;;16.07;;
14394;SDS011;7282;49.204;10.652;2022-11-25T05:01:46;26.07;;;17.40;;
14394;SDS011;7282;49.204;10.652;2022-11-25T05:04:13;32.30;;;20.27;;
14394;SDS011;7282;49.204;10.652;2022-11-25T05:06:40;31.13;;;19.87;;
14394;SDS011;7282;49.204;10.652;2022-11-25T05:09:06;32.87;;;20.40;;
14394;SDS011;7282;49.204;10.652;2022-11-25T05:11:35;26.40;;;18.03;;
14394;SDS011;7282;49.204;10.652;2022-11-25T05:14:02;26.57;;;18.93;;
14394;SDS011;7282;49.204;10.652;2022-11-25T05:16:28;28.77;;;20.63;;
14394;SDS011;7282;49.204;10.652;2022-11-25T05:18:55;26.43;;;18.67;;
14394;SDS011;7282;49.204;10.652;2022-11-25T05:21:22;23.43;;;18.20;;
14394;SDS011;7282;49.204;10.652;2022-11-25T05:23:48;22.40;;;17.27;;
14394;SDS011;7282;49.204;10.652;2022-11-25T05:26:15;24.10;;;18.87;;
14394;SDS011;7282;49.204;10.652;2022-11-25T05:28:42;30.90;;;20.77;;
14394;SDS011;7282;49.204;10.652;2022-11-25T05:31:09;27.83;;;18.93;;
14394;SDS011;7282;49.204;10.652;2022-11-25T05:33:36;27.03;;;18.20;;
14394;SDS011;7282;49.204;10.652;2022-11-25T05:36:03;24.10;;;17.03;;
14394;SDS011;7282;49.204;10.652;2022-11-25T05:38:30;25.53;;;17.33;;
14394;SDS011;7282;49.204;10.652;2022-11-25T05:41:00;22.80;;;17.40;;
14394;SDS011;7282;49.204;10.652;2022-11-25T05:43:28;22.20;;;16.70;;
14394;SDS011;7282;49.204;10.652;2022-11-25T05:45:54;26.83;;;18.83;;
14394;SDS011;7282;49.204;10.652;2022-11-25T05:48:21;27.47;;;17.40;;
14394;SDS011;7282;49.204;10.652;2022-11-25T05:50:48;24.33;;;18.57;;
14394;SDS011;7282;49.204;10.652;2022-11-25T05:53:15;25.60;;;18.10;;
14394;SDS011;7282;49.204;10.652;2022-11-25T05:55:44;34.30;;;19.10;;
14394;SDS011;7282;49.204;10.652;2022-11-25T05:58:10;31.47;;;19.23;;
14394;SDS011;7282;49.204;10.652;2022-11-25T06:00:37;40.33;;;23.20;;
14394;SDS011;7282;49.204;10.652;2022-11-25T06:03:04;32.13;;;21.10;;
14394;SDS011;7282;49.204;10.652;2022-11-25T06:05:33;37.23;;;21.17;;
14394;SDS011;7282;49.204;10.652;2022-11-25T06:07:59;37.90;;;22.87;;
14394;SDS011;7282;49.204;10.652;2022-11-25T06:10:26;34.10;;;21.93;;
14394;SDS011;7282;49.204;10.652;2022-11-25T06:12:52;37.50;;;22.57;;
14394;SDS011;7282;49.204;10.652;2022-11-25T06:15:19;34.33;;;21.60;;
14394;SDS011;7282;49.204;10.652;2022-11-25T06:17:46;32.63;;;21.60;;
14394;SDS011;7282;49.204;10.652;2022-11-25T06:20:12;34.27;;;21.10;;
14394;SDS011;7282;49.204;10.652;2022-11-25T06:22:39;39.70;;;25.30;;
14394;SDS011;7282;49.204;10.652;2022-11-25T06:25:06;36.00;;;24.60;;
14394;SDS011;7282;49.204;10.652;2022-11-25T06:27:33;40.90;;;26.03;;
14394;SDS011;7282;49.204;10.652;2022-11-25T06:30:00;40.70;;;24.90;;
14394;SDS011;7282;49.204;10.652;2022-11-25T06:32:26;42.20;;;25.07;;
14394;SDS011;7282;49.204;10.652;2022-11-25T06:34:53;40.63;;;23.40;;
14394;SDS011;7282;49.204;10.652;2022-11-25T06:37:20;31.47;;;20.83;;
14394;SDS011;7282;49.204;10.652;2022-11-25T06:39:46;30.37;;;20.80;;
14394;SDS011;7282;49.204;10.652;2022-11-25T06:42:13;24.70;;;18.87;;
14394;SDS011;7282;49.204;10.652;2022-11-25T06:44:40;29.33;;;19.43;;
14394;SDS011;7282;49.204;10.652;2022-11-25T06:47:06;29.00;;;20.47;;
14394;SDS011;7282;49.204;10.652;2022-11-25T06:49:33;28.07;;;19.93;;
14394;SDS011;7282;49.204;10.652;2022-11-25T06:52:00;34.40;;;22.63;;
14394;SDS011;7282;49.204;10.652;2022-11-25T06:54:26;33.20;;;20.97;;
14394;SDS011;7282;49.204;10.652;2022-11-25T06:56:53;31.20;;;20.90;;
14394;SDS011;7282;49.204;10.652;2022-11-25T06:59:20;29.33;;;21.17;;
14394;SDS011;7282;49.204;10.652;2022-11-25T07:01:47;31.20;;;21.00;;
14394;SDS011;7282;49.204;10.652;2022-11-25T07:04:13;32.50;;;21.23;;
14394;SDS011;7282;49.204;10.652;2022-11-25T07:06:42;29.50;;;22.70;;
14394;SDS011;7282;49.204;10.652;2022-11-25T07:09:09;30.07;;;21.80;;
14394;SDS011;7282;49.204;10.652;2022-11-25T07:11:37;31.80;;;20.70;;
14394;SDS011;7282;49.204;10.652;2022-11-25T07:14:05;33.17;;;22.27;;
14394;SDS011;7282;49.204;10.652;2022-11-25T07:16:32;34.23;;;22.00;;
14394;SDS011;7282;49.204;10.652;2022-11-25T07:19:00;38.80;;;23.17;;
14394;SDS011;7282;49.204;10.652;2022-11-25T07:21:29;33.07;;;24.63;;
14394;SDS011;7282;49.204;10.652;2022-11-25T07:23:57;41.00;;;26.73;;
14394;SDS011;7282;49.204;10.652;2022-11-25T07:26:25;32.20;;;24.43;;
14394;SDS011;7282;49.204;10.652;2022-11-25T07:28:53;34.27;;;23.83;;
14394;SDS011;7282;49.204;10.652;2022-11-25T07:31:27;29.17;;;22.03;;
14394;SDS011;7282;49.204;10.652;2022-11-25T07:34:04;32.87;;;23.03;;
14394;SDS011;7282;49.204;10.652;2022-11-25T07:36:23;35.07;;;23.27;;
14394;SDS011;7282;49.204;10.652;2022-11-25T07:38:50;32.60;;;22.80;;
14394;SDS011;7282;49.204;10.652;2022-11-25T07:41:18;28.23;;;21.20;;
14394;SDS011;7282;49.204;10.652;2022-11-25T07:43:45;30.40;;;21.67;;
14394;SDS011;7282;49.204;10.652;2022-11-25T07:46:14;33.00;;;20.67;;
14394;SDS011;7282;49.204;10.652;2022-11-25T07:48:41;34.47;;;21.97;;
14394;SDS011;7282;49.204;10.652;2022-11-25T07:51:15;38.47;;;24.17;;
14394;SDS011;7282;49.204;10.652;2022-11-25T07:53:41;33.33;;;22.80;;
14394;SDS011;7282;49.204;10.652;2022-11-25T07:56:08;30.60;;;21.03;;
14394;SDS011;7282;49.204;10.652;2022-11-25T07:58:35;26.37;;;20.27;;
14394;SDS011;7282;49.204;10.652;2022-11-25T08:01:02;28.00;;;20.10;;
14394;SDS011;7282;49.204;10.652;2022-11-25T08:03:35;27.70;;;20.40;;
14394;SDS011;7282;49.204;10.652;2022-11-25T08:05:59;30.67;;;19.97;;
14394;SDS011;7282;49.204;10.652;2022-11-25T08:08:26;32.37;;;21.13;;
14394;SDS011;7282;49.204;10.652;2022-11-25T08:10:53;32.13;;;21.13;;
14394;SDS011;7282;49.204;10.652;2022-11-25T08:13:19;32.37;;;21.13;;
14394;SDS011;7282;49.204;10.652;2022-11-25T08:15:46;34.43;;;23.17;;
14394;SDS011;7282;49.204;10.652;2022-11-25T08:18:13;33.93;;;23.00;;
14394;SDS011;7282;49.204;10.652;2022-11-25T08:20:40;38.97;;;23.83;;
14394;SDS011;7282;49.204;10.652;2022-11-25T08:23:06;37.87;;;25.77;;
14394;SDS011;7282;49.204;10.652;2022-11-25T08:25:38;37.60;;;24.80;;
14394;SDS011;7282;49.204;10.652;2022-11-25T08:28:02;34.33;;;24.67;;
14394;SDS011;7282;49.204;10.652;2022-11-25T08:30:28;34.03;;;24.47;;
14394;SDS011;7282;49.204;10.652;2022-11-25T08:32:55;45.60;;;26.30;;
14394;SDS011;7282;49.204;10.652;2022-11-25T08:35:23;40.77;;;25.30;;
14394;SDS011;7282;49.204;10.652;2022-11-25T08:37:50;35.03;;;23.77;;
14394;SDS011;7282;49.204;10.652;2022-11-25T08:42:54;34.23;;;25.27;;
14394;SDS011;7282;49.204;10.652;2022-11-25T08:45:21;33.20;;;23.57;;
14394;SDS011;7282;49.204;10.652;2022-11-25T08:47:48;38.43;;;24.97;;
14394;SDS011;7282;49.204;10.652;2022-11-25T08:50:14;35.67;;;25.73;;
14394;SDS011;7282;49.204;10.652;2022-11-25T08:52:41;31.90;;;23.50;;
14394;SDS011;7282;49.204;10.652;2022-11-25T08:55:08;35.10;;;24.57;;
14394;SDS011;7282;49.204;10.652;2022-11-25T08:57:35;35.43;;;25.43;;
14394;SDS011;7282;49.204;10.652;2022-11-25T09:00:03;38.30;;;25.93;;
14394;SDS011;7282;49.204;10.652;2022-11-25T09:02:30;36.47;;;26.43;;
14394;SDS011;7282;49.204;10.652;2022-11-25T09:04:57;33.87;;;25.20;;
14394;SDS011;7282;49.204;10.652;2022-11-25T09:07:24;31.83;;;23.87;;
14394;SDS011;7282;49.204;10.652;2022-11-25T09:09:50;34.67;;;25.37;;
14394;SDS011;7282;49.204;10.652;2022-11-25T09:12:17;32.30;;;24.53;;
14394;SDS011;7282;49.204;10.652;2022-11-25T09:14:44;33.87;;;25.60;;
14394;SDS011;7282;49.204;10.652;2022-11-25T09:17:11;35.33;;;25.73;;
14394;SDS011;7282;49.204;10.652;2022-11-25T09:19:38;32.57;;;24.50;;
14394;SDS011;7282;49.204;10.652;2022-11-25T09:24:47;32.43;;;23.40;;
14394;SDS011;7282;49.204;10.652;2022-11-25T09:27:14;29.87;;;22.47;;
14394;SDS011;7282;49.204;10.652;2022-11-25T09:29:41;32.37;;;24.23;;
14394;SDS011;7282;49.204;10.652;2022-11-25T09:32:07;31.23;;;23.70;;
14394;SDS011;7282;49.204;10.652;2022-11-25T09:34:34;29.20;;;23.37;;
14394;SDS011;7282;49.204;10.652;2022-11-25T09:37:01;30.17;;;24.17;;
14394;SDS011;7282;49.204;10.652;2022-11-25T09:39:28;30.83;;;24.07;;
14394;SDS011;7282;49.204;10.652;2022-11-25T09:42:04;29.07;;;21.83;;
14394;SDS011;7282;49.204;10.652;2022-11-25T09:47:41;26.63;;;20.90;;
14394;SDS011;7282;49.204;10.652;2022-11-25T09:50:12;26.30;;;20.00;;
14394;SDS011;7282;49.204;10.652;2022-11-25T09:52:46;25.60;;;19.37;;
14394;SDS011;7282;49.204;10.652;2022-11-25T09:55:15;24.37;;;18.70;;
14394;SDS011;7282;49.204;10.652;2022-11-25T09:57:47;20.03;;;17.20;;
14394;SDS011;7282;49.204;10.652;2022-11-25T10:00:12;19.23;;;16.70;;
14394;SDS011;7282;49.204;10.652;2022-11-25T10:02:44;17.43;;;14.73;;
14394;SDS011;7282;49.204;10.652;2022-11-25T10:05:15;16.77;;;13.83;;
14394;SDS011;7282;49.204;10.652;2022-11-25T10:07:43;14.57;;;13.07;;
14394;SDS011;7282;49.204;10.652;2022-11-25T10:10:18;15.37;;;13.77;;
14394;SDS011;7282;49.204;10.652;2022-11-25T10:12:45;16.50;;;13.43;;
14394;SDS011;7282;49.204;10.652;2022-11-25T10:15:18;16.60;;;13.37;;
14394;SDS011;7282;49.204;10.652;2022-11-25T10:17:46;16.43;;;13.67;;
14394;SDS011;7282;49.204;10.652;2022-11-25T10:20:23;16.80;;;13.87;;
14394;SDS011;7282;49.204;10.652;2022-11-25T10:23:04;16.33;;;13.60;;
14394;SDS011;7282;49.204;10.652;2022-11-25T10:25:32;17.07;;;14.53;;
14394;SDS011;7282;49.204;10.652;2022-11-25T10:28:00;11.03;;;9.90;;
14394;SDS011;7282;49.204;10.652;2022-11-25T10:30:32;14.97;;;12.87;;
14394;SDS011;7282;49.204;10.652;2022-11-25T10:33:03;18.07;;;15.30;;
14394;SDS011;7282;49.204;10.652;2022-11-25T10:35:33;18.70;;;13.23;;
14394;SDS011;7282;49.204;10.652;2022-11-25T10:38:01;16.27;;;12.53;;
14394;SDS011;7282;49.204;10.652;2022-11-25T10:40:29;16.80;;;15.00;;
14394;SDS011;7282;49.204;10.652;2022-11-25T10:42:56;18.40;;;16.47;;
14394;SDS011;7282;49.204;10.652;2022-11-25T10:45:25;17.77;;;15.93;;
14394;SDS011;7282;49.204;10.652;2022-11-25T10:50:29;13.00;;;8.90;;
14394;SDS011;7282;49.204;10.652;2022-11-25T10:52:59;10.70;;;9.60;;
14394;SDS011;7282;49.204;10.652;2022-11-25T10:55:27;10.47;;;8.90;;
14394;SDS011;7282;49.204;10.652;2022-11-25T10:57:59;10.80;;;9.70;;
14394;SDS011;7282;49.204;10.652;2022-11-25T11:00:33;10.13;;;9.17;;
14394;SDS011;7282;49.204;10.652;2022-11-25T11:03:19;9.93;;;8.83;;
14394;SDS011;7282;49.204;10.652;2022-11-25T11:05:46;10.87;;;9.73;;
14394;SDS011;7282;49.204;10.652;2022-11-25T11:08:18;12.03;;;10.77;;
14394;SDS011;7282;49.204;10.652;2022-11-25T11:10:45;12.97;;;11.10;;
14394;SDS011;7282;49.204;10.652;2022-11-25T11:13:20;11.67;;;9.60;;
14394;SDS011;7282;49.204;10.652;2022-11-25T11:15:48;8.13;;;6.50;;
14394;SDS011;7282;49.204;10.652;2022-11-25T11:21:00;8.30;;;6.73;;
14394;SDS011;7282;49.204;10.652;2022-11-25T11:23:27;8.23;;;6.87;;
14394;SDS011;7282;49.204;10.652;2022-11-25T11:26:05;7.23;;;6.50;;
14394;SDS011;7282;49.204;10.652;2022-11-25T11:36:24;8.00;;;6.30;;
14394;SDS011;7282;49.204;10.652;2022-11-25T11:38:51;7.23;;;6.47;;
14394;SDS011;7282;49.204;10.652;2022-11-25T11:41:30;8.37;;;6.67;;
14394;SDS011;7282;49.204;10.652;2022-11-25T11:44:00;7.80;;;6.70;;
14394;SDS011;7282;49.204;10.652;2022-11-25T11:46:44;7.50;;;6.70;;
14394;SDS011;7282;49.204;10.652;2022-11-25T11:49:27;9.03;;;6.90;;
14394;SDS011;7282;49.204;10.652;2022-11-25T11:52:02;8.23;;;7.20;;
14394;SDS011;7282;49.204;10.652;2022-11-25T11:54:29;8.57;;;7.17;;
14394;SDS011;7282;49.204;10.652;2022-11-25T11:56:59;8.13;;;7.27;;
14394;SDS011;7282;49.204;10.652;2022-11-25T11:59:29;9.93;;;7.37;;
14394;SDS011;7282;49.204;10.652;2022-11-25T12:04:49;8.20;;;7.40;;
14394;SDS011;7282;49.204;10.652;2022-11-25T12:07:20;9.07;;;7.73;;
14394;SDS011;7282;49.204;10.652;2022-11-25T12:09:45;7.07;;;6.37;;
14394;SDS011;7282;49.204;10.652;2022-11-25T12:12:12;7.60;;;6.70;;
14394;SDS011;7282;49.204;10.652;2022-11-25T12:14:41;6.77;;;6.10;;
14394;SDS011;7282;49.204;10.652;2022-11-25T12:17:12;7.23;;;6.53;;
14394;SDS011;7282;49.204;10.652;2022-11-25T12:19:50;10.27;;;6.93;;
14394;SDS011;7282;49.204;10.652;2022-11-25T12:22:18;9.20;;;6.57;;
14394;SDS011;7282;49.204;10.652;2022-11-25T12:24:47;7.97;;;6.73;;
14394;SDS011;7282;49.204;10.652;2022-11-25T12:27:18;12.07;;;8.93;;
14394;SDS011;7282;49.204;10.652;2022-11-25T12:29:49;11.17;;;7.10;;
14394;SDS011;7282;49.204;10.652;2022-11-25T12:32:24;9.50;;;8.23;;
14394;SDS011;7282;49.204;10.652;2022-11-25T12:34:50;7.87;;;6.43;;
14394;SDS011;7282;49.204;10.652;2022-11-25T12:37:17;7.83;;;7.03;;
14394;SDS011;7282;49.204;10.652;2022-11-25T12:39:51;10.00;;;9.10;;
14394;SDS011;7282;49.204;10.652;2022-11-25T12:42:14;8.67;;;7.53;;
14394;SDS011;7282;49.204;10.652;2022-11-25T12:47:13;9.03;;;8.13;;
14394;SDS011;7282;49.204;10.652;2022-11-25T12:49:44;10.27;;;8.53;;
14394;SDS011;7282;49.204;10.652;2022-11-25T12:52:47;9.70;;;8.67;;
14394;SDS011;7282;49.204;10.652;2022-11-25T12:54:53;10.00;;;9.00;;
14394;SDS011;7282;49.204;10.652;2022-11-25T12:57:21;11.43;;;9.30;;
14394;SDS011;7282;49.204;10.652;2022-11-25T13:07:22;14.47;;;11.93;;
14394;SDS011;7282;49.204;10.652;2022-11-25T13:15:27;14.70;;;11.03;;
14394;SDS011;7282;49.204;10.652;2022-11-25T13:17:56;13.90;;;10.73;;
14394;SDS011;7282;49.204;10.652;2022-11-25T13:23:05;14.83;;;11.60;;
14394;SDS011;7282;49.204;10.652;2022-11-25T13:25:30;14.27;;;11.07;;
14394;SDS011;7282;49.204;10.652;2022-11-25T13:27:58;11.90;;;10.27;;
14394;SDS011;7282;49.204;10.652;2022-11-25T13:41:00;13.27;;;9.13;;
14394;SDS011;7282;49.204;10.652;2022-11-25T13:43:24;14.07;;;9.90;;
14394;SDS011;7282;49.204;10.652;2022-11-25T13:45:51;16.00;;;10.30;;
14394;SDS011;7282;49.204;10.652;2022-11-25T13:48:19;15.50;;;10.50;;
14394;SDS011;7282;49.204;10.652;2022-11-25T13:50:47;14.03;;;11.10;;
14394;SDS011;7282;49.204;10.652;2022-11-25T13:53:30;15.93;;;10.20;;
14394;SDS011;7282;49.204;10.652;2022-11-25T13:55:50;16.37;;;10.83;;
14394;SDS011;7282;49.204;10.652;2022-11-25T14:00:49;19.67;;;9.43;;
14394;SDS011;7282;49.204;10.652;2022-11-25T14:08:36;14.17;;;8.37;;
14394;SDS011;7282;49.204;10.652;2022-11-25T14:16:24;13.53;;;9.00;;
14394;SDS011;7282;49.204;10.652;2022-11-25T14:26:43;14.90;;;9.73;;
14394;SDS011;7282;49.204;10.652;2022-11-25T14:29:16;14.97;;;9.17;;
14394;SDS011;7282;49.204;10.652;2022-11-25T14:31:50;13.90;;;9.70;;
14394;SDS011;7282;49.204;10.652;2022-11-25T14:37:12;16.83;;;10.93;;
14394;SDS011;7282;49.204;10.652;2022-11-25T14:39:43;17.93;;;12.37;;
14394;SDS011;7282;49.204;10.652;2022-11-25T14:42:11;15.23;;;11.53;;
14394;SDS011;7282;49.204;10.652;2022-11-25T14:44:39;16.20;;;11.73;;
14394;SDS011;7282;49.204;10.652;2022-11-25T14:47:07;17.70;;;11.00;;
14394;SDS011;7282;49.204;10.652;2022-11-25T14:49:44;16.30;;;11.90;;
14394;SDS011;7282;49.204;10.652;2022-11-25T14:52:08;18.03;;;12.87;;
14394;SDS011;7282;49.204;10.652;2022-11-25T14:54:43;28.83;;;17.67;;
14394;SDS011;7282;49.204;10.652;2022-11-25T14:57:07;19.80;;;14.50;;
14394;SDS011;7282;49.204;10.652;2022-11-25T14:59:35;21.03;;;13.23;;
14394;SDS011;7282;49.204;10.652;2022-11-25T15:02:02;17.30;;;12.93;;
14394;SDS011;7282;49.204;10.652;2022-11-25T15:04:31;15.43;;;12.20;;
14394;SDS011;7282;49.204;10.652;2022-11-25T15:06:58;22.50;;;14.27;;
14394;SDS011;7282;49.204;10.652;2022-11-25T15:09:29;18.57;;;14.67;;
14394;SDS011;7282;49.204;10.652;2022-11-25T15:11:57;18.17;;;14.43;;
14394;SDS011;7282;49.204;10.652;2022-11-25T15:14:31;23.50;;;16.50;;
14394;SDS011;7282;49.204;10.652;2022-11-25T15:16:58;20.43;;;15.83;;
14394;SDS011;7282;49.204;10.652;2022-11-25T15:19:27;21.23;;;15.60;;
14394;SDS011;7282;49.204;10.652;2022-11-25T15:21:56;20.17;;;15.27;;
14394;SDS011;7282;49.204;10.652;2022-11-25T15:24:25;22.07;;;15.20;;
14394;SDS011;7282;49.204;10.652;2022-11-25T15:26:52;20.77;;;16.20;;
14394;SDS011;7282;49.204;10.652;2022-11-25T15:29:19;22.03;;;16.40;;
14394;SDS011;7282;49.204;10.652;2022-11-25T15:31:47;24.90;;;17.13;;
14394;SDS011;7282;49.204;10.652;2022-11-25T15:34:15;25.43;;;17.10;;
14394;SDS011;7282;49.204;10.652;2022-11-25T15:36:44;27.93;;;18.50;;
14394;SDS011;7282;49.204;10.652;2022-11-25T15:41:49;26.33;;;18.27;;
14394;SDS011;7282;49.204;10.652;2022-11-25T15:44:24;25.47;;;18.87;;
14394;SDS011;7282;49.204;10.652;2022-11-25T15:46:53;25.37;;;18.73;;
14394;SDS011;7282;49.204;10.652;2022-11-25T15:49:20;26.13;;;18.50;;
14394;SDS011;7282;49.204;10.652;2022-11-25T15:51:55;31.70;;;20.27;;